Terminal Aerodrome Forecast
Issued by NWS Melbourne, FL

Home | Current Version | Previous Version | Text Only | Print | Product List | Glossary On
Versions: 1 2 3 4 5 6 7 8 9 10 11 12
000
FTUS42 KMLB 221123
TAFMLB
TAF
KMLB 221123Z 2212/2312 08008KT P6SM FEW015 SCT020
     FM221500 08011KT P6SM VCSH SCT025 SCT050
     FM230100 10007KT P6SM SCT035
     FM230600 VRB03KT P6SM FEW020 SCT250=

USA.gov is the U.S. government's official web portal to all federal, state and local government web resources and services.